createdAt,value
2023-02-11T00:00:57.075Z,103356.31
2023-02-11T00:03:23.949Z,103359.72
2023-02-11T00:06:01.859Z,103359.72
2023-02-11T00:08:28.284Z,103351.81
2023-02-11T00:10:56.802Z,103349.38
2023-02-11T00:13:24.047Z,103348.66
2023-02-11T00:15:51.133Z,103332.84
2023-02-11T00:18:18.116Z,103323.91
2023-02-11T00:20:44.724Z,103331.78
2023-02-11T00:23:11.244Z,103328.16
2023-02-11T00:25:45.567Z,103340.69
2023-02-11T00:28:12.568Z,103343.25
2023-02-11T00:30:39.270Z,103346.66
2023-02-11T00:33:05.882Z,103353.50
2023-02-11T00:35:32.341Z,103350.81
2023-02-11T00:37:58.755Z,103367.41
2023-02-11T00:40:25.315Z,103357.84
2023-02-11T00:42:51.814Z,103355.03
2023-02-11T00:45:20.797Z,103354.31
2023-02-11T00:47:47.285Z,103352.59
2023-02-11T00:50:13.789Z,103349.09
2023-02-11T00:52:40.181Z,103343.69
2023-02-11T00:55:08.168Z,103339.16
2023-02-11T00:57:34.617Z,103333.81
2023-02-11T01:00:01.069Z,103330.22
2023-02-11T01:02:27.601Z,103324.06
2023-02-11T01:04:54.087Z,103319.56
2023-02-11T01:07:20.560Z,103318.50
2023-02-11T01:09:49.768Z,103324.63
2023-02-11T01:12:16.188Z,103323.63
2023-02-11T01:14:43.032Z,103310.53
2023-02-11T01:17:09.788Z,103308.84
2023-02-11T01:19:39.388Z,103316.69
2023-02-11T01:22:05.825Z,103302.25
2023-02-11T01:24:32.363Z,103311.97
2023-02-11T01:26:58.868Z,103321.47
2023-02-11T01:29:25.259Z,103321.28
2023-02-11T01:31:52.989Z,103329.31
2023-02-11T01:34:19.435Z,103332.66
2023-02-11T01:36:45.959Z,103328.16
2023-02-11T01:39:12.474Z,103334.16
2023-02-11T01:41:38.999Z,103331.56
2023-02-11T01:44:27.337Z,103329.03
2023-02-11T01:46:55.867Z,103322.72
2023-02-11T01:49:29.378Z,103329.94
2023-02-11T01:52:04.805Z,103332.56
2023-02-11T01:54:56.952Z,103323.91
2023-02-11T01:57:29.014Z,103301.69
2023-02-11T02:00:12.897Z,103333.56
2023-02-11T02:02:43.055Z,103339.50
2023-02-11T02:05:33.399Z,103334.38
2023-02-11T02:08:16.079Z,103336.00
2023-02-11T02:10:45.819Z,103320.91
2023-02-11T02:13:13.416Z,103318.28
2023-02-11T02:15:46.510Z,103319.00
2023-02-11T02:18:40.873Z,103314.69
2023-02-11T02:21:31.194Z,103326.78
2023-02-11T02:24:03.558Z,103324.06
2023-02-11T02:26:52.022Z,103326.59
2023-02-11T02:29:49.485Z,103312.41
2023-02-11T02:32:31.174Z,103318.28
2023-02-11T02:35:12.892Z,103308.44
2023-02-11T02:38:06.660Z,103302.22
2023-02-11T02:40:49.930Z,103298.53
2023-02-11T02:43:17.198Z,103289.59
2023-02-11T02:45:43.650Z,103309.69
2023-02-11T02:48:35.658Z,103309.88
2023-02-11T02:51:32.334Z,103318.78
2023-02-11T02:54:30.726Z,103323.13
2023-02-11T02:57:18.926Z,103310.78
2023-02-11T03:00:19.517Z,103311.59
2023-02-11T03:03:10.277Z,103303.47
2023-02-11T03:05:49.743Z,103299.75
2023-02-11T03:08:25.396Z,103297.94
2023-02-11T03:10:54.177Z,103302.28
2023-02-11T03:13:26.527Z,103303.00
2023-02-11T03:15:57.800Z,103297.75
2023-02-11T03:18:28.768Z,103298.75
2023-02-11T03:20:56.859Z,103288.19
2023-02-11T03:23:35.336Z,103290.44
2023-02-11T03:26:15.198Z,103283.13
2023-02-11T03:28:50.122Z,103276.72
2023-02-11T03:31:44.007Z,103273.03
2023-02-11T03:34:17.249Z,103280.69
2023-02-11T03:36:57.519Z,103279.97
2023-02-11T03:39:36.513Z,103281.59
2023-02-11T03:42:06.733Z,103261.28
2023-02-11T03:44:41.301Z,103256.88
2023-02-11T03:47:10.852Z,103258.38
2023-02-11T03:49:40.809Z,103262.53
2023-02-11T03:52:11.265Z,103271.25
2023-02-11T03:54:42.023Z,103273.78
2023-02-11T03:57:08.630Z,103272.91
2023-02-11T03:59:53.860Z,103276.59
2023-02-11T04:02:22.211Z,103271.56
2023-02-11T04:04:48.710Z,103274.47
2023-02-11T04:07:15.134Z,103269.31
2023-02-11T04:09:41.561Z,103271.84
2023-02-11T04:12:08.438Z,103272.63
2023-02-11T04:14:35.009Z,103269.94
2023-02-11T04:17:01.489Z,103264.59
2023-02-11T04:19:28.066Z,103273.44
2023-02-11T04:21:54.509Z,103262.28
2023-02-11T04:24:20.981Z,103263.19
2023-02-11T04:26:47.397Z,103268.41
2023-02-11T04:29:13.835Z,103269.31
2023-02-11T04:31:40.300Z,103274.75
2023-02-11T04:34:06.747Z,103284.56
2023-02-11T04:36:33.218Z,103291.81
2023-02-11T04:38:59.734Z,103278.91
2023-02-11T04:41:28.161Z,103284.16
2023-02-11T04:43:54.693Z,103291.09
2023-02-11T04:46:21.241Z,103287.75
2023-02-11T04:48:47.677Z,103278.34
2023-02-11T04:51:14.162Z,103293.97
2023-02-11T04:53:40.795Z,103300.91
2023-02-11T04:56:07.256Z,103289.66
2023-02-11T04:58:33.968Z,103298.41
2023-02-11T05:01:11.878Z,103300.91
2023-02-11T05:03:38.975Z,103301.00
2023-02-11T05:06:06.164Z,103296.56
2023-02-11T05:08:32.834Z,103297.41
2023-02-11T05:10:59.290Z,103302.50
2023-02-11T05:13:25.773Z,103294.78
2023-02-11T05:15:53.284Z,103298.28
2023-02-11T05:18:20.071Z,103292.16
2023-02-11T05:20:46.566Z,103291.16
2023-02-11T05:23:13.041Z,103291.28
2023-02-11T05:25:39.448Z,103288.66
2023-02-11T05:28:06.801Z,103292.47
2023-02-11T05:30:36.350Z,103294.06
2023-02-11T05:33:02.880Z,103299.28
2023-02-11T05:35:30.358Z,103301.09
2023-02-11T05:37:58.002Z,103296.88
2023-02-11T05:40:24.583Z,103294.53
2023-02-11T05:42:52.468Z,103291.09
2023-02-11T05:45:18.938Z,103291.22
2023-02-11T05:47:45.512Z,103294.72
2023-02-11T05:50:12.041Z,103288.66
2023-02-11T05:52:38.435Z,103291.50
2023-02-11T05:55:05.751Z,103286.34
2023-02-11T05:57:32.152Z,103292.75
2023-02-11T05:59:58.632Z,103298.09
2023-02-11T06:02:25.245Z,103307.63
2023-02-11T06:04:51.762Z,103311.06
2023-02-11T06:07:19.684Z,103310.34
2023-02-11T06:09:46.438Z,103308.63
2023-02-11T06:12:12.892Z,103303.50
2023-02-11T06:14:39.301Z,103308.72
2023-02-11T06:17:05.716Z,103315.94
2023-02-11T06:19:32.225Z,103311.63
2023-02-11T06:21:59.634Z,103310.69
2023-02-11T06:24:54.713Z,103316.84
2023-02-11T06:27:15.850Z,103316.94
2023-02-11T06:29:44.155Z,103316.16
2023-02-11T06:32:28.165Z,103311.63
2023-02-11T06:34:57.109Z,103310.81
2023-02-11T06:37:23.936Z,103307.28
2023-02-11T06:39:52.853Z,103307.28
2023-02-11T06:42:19.392Z,103308.19
2023-02-11T06:44:45.843Z,103305.41
2023-02-11T06:47:12.282Z,103312.53
2023-02-11T06:49:38.694Z,103308.91
2023-02-11T06:52:05.633Z,103306.47
2023-02-11T06:54:32.069Z,103303.84
2023-02-11T06:56:58.461Z,103305.69
2023-02-11T06:59:24.851Z,103305.75
2023-02-11T07:01:51.544Z,103310.28
2023-02-11T07:04:27.497Z,103308.47
2023-02-11T07:06:53.984Z,103314.88
2023-02-11T07:09:20.577Z,103313.25
2023-02-11T07:11:46.959Z,103321.91
2023-02-11T07:14:13.743Z,103320.19
2023-02-11T07:16:40.723Z,103329.75
2023-02-11T07:19:07.345Z,103326.44
2023-02-11T07:21:34.868Z,103323.69
2023-02-11T07:24:01.685Z,103336.88
2023-02-11T07:26:29.231Z,103335.16
2023-02-11T07:28:56.247Z,103338.59
2023-02-11T07:31:26.106Z,103338.91
2023-02-11T07:33:56.701Z,103346.81
2023-02-11T07:36:24.306Z,103348.81
2023-02-11T07:38:50.820Z,103345.56
2023-02-11T07:41:20.457Z,103348.16
2023-02-11T07:43:47.356Z,103352.78
2023-02-11T07:46:20.453Z,103351.16
2023-02-11T07:48:47.396Z,103355.66
2023-02-11T07:51:22.348Z,103348.81
2023-02-11T07:53:49.001Z,103357.66
2023-02-11T07:56:17.064Z,103354.31
2023-02-11T07:58:43.845Z,103335.53
2023-02-11T08:01:13.230Z,103357.03
2023-02-11T08:03:41.297Z,103360.63
2023-02-11T08:06:10.431Z,103352.88
2023-02-11T08:08:37.392Z,103356.56
2023-02-11T08:11:21.447Z,103361.97
2023-02-11T08:13:48.584Z,103361.25
2023-02-11T08:16:25.289Z,103361.47
2023-02-11T08:18:53.440Z,103355.50
2023-02-11T08:21:20.910Z,103359.03
2023-02-11T08:23:47.574Z,103359.03
2023-02-11T08:26:17.490Z,103348.53
2023-02-11T08:28:45.610Z,103357.19
2023-02-11T08:31:18.355Z,103359.75
2023-02-11T08:33:52.398Z,103366.03
2023-02-11T08:36:23.196Z,103367.84
2023-02-11T08:38:49.776Z,103372.34
2023-02-11T08:41:20.147Z,103385.38
2023-02-11T08:43:47.158Z,103380.31
2023-02-11T08:46:17.436Z,103388.38
2023-02-11T08:48:44.741Z,103381.53
2023-02-11T08:51:20.000Z,103379.06
2023-02-11T08:53:46.743Z,103379.25
2023-02-11T08:56:14.660Z,103393.34
2023-02-11T08:58:41.863Z,103386.38
2023-02-11T09:01:25.137Z,103385.75
2023-02-11T09:03:51.964Z,103385.66
2023-02-11T09:06:18.741Z,103387.66
2023-02-11T09:08:51.903Z,103382.59
2023-02-11T09:11:23.142Z,103389.63
2023-02-11T09:13:51.473Z,103393.34
2023-02-11T09:16:21.858Z,103400.38
2023-02-11T09:18:49.403Z,103405.59
2023-02-11T09:21:18.356Z,103410.03
2023-02-11T09:23:47.623Z,103417.09
2023-02-11T09:26:16.013Z,103415.63
2023-02-11T09:28:42.579Z,103411.19
2023-02-11T09:31:11.752Z,103414.00
2023-02-11T09:33:42.159Z,103422.13
2023-02-11T09:36:08.972Z,103421.50
2023-02-11T09:38:35.438Z,103423.38
2023-02-11T09:41:07.800Z,103411.06
2023-02-11T09:43:44.116Z,103408.72
2023-02-11T09:46:15.353Z,103410.44
2023-02-11T09:48:45.342Z,103423.00
2023-02-11T09:51:47.274Z,103432.03
2023-02-11T09:54:27.297Z,103426.06
2023-02-11T09:56:53.937Z,103435.91
2023-02-11T09:59:21.115Z,103446.78
2023-02-11T10:01:53.587Z,103452.56
2023-02-11T10:04:55.717Z,103458.41
2023-02-11T10:07:43.702Z,103452.88
2023-02-11T10:10:17.215Z,103460.06
2023-02-11T10:13:11.677Z,103455.91
2023-02-11T10:15:56.906Z,103456.06
2023-02-11T10:18:49.516Z,103456.25
2023-02-11T10:21:36.051Z,103441.97
2023-02-11T10:24:10.031Z,103460.84
2023-02-11T10:26:38.943Z,103454.59
2023-02-11T10:29:38.808Z,103475.28
2023-02-11T10:32:26.732Z,103474.44
2023-02-11T10:34:58.473Z,103478.97
2023-02-11T10:37:24.983Z,103481.84
2023-02-11T10:39:51.353Z,103490.03
2023-02-11T10:42:18.322Z,103481.59
2023-02-11T10:45:17.763Z,103483.63
2023-02-11T10:47:44.286Z,103481.53
2023-02-11T10:50:24.035Z,103483.97
2023-02-11T10:52:50.521Z,103490.81
2023-02-11T10:55:27.345Z,103481.25
2023-02-11T10:58:00.801Z,103479.72
2023-02-11T11:00:45.441Z,103483.53
2023-02-11T11:03:37.721Z,103476.50
2023-02-11T11:06:09.133Z,103478.28
2023-02-11T11:08:44.444Z,103484.16
2023-02-11T11:11:13.822Z,103482.81
2023-02-11T11:13:52.640Z,103488.22
2023-02-11T11:16:22.116Z,103488.22
2023-02-11T11:18:50.834Z,103486.56
2023-02-11T11:21:23.327Z,103499.63
2023-02-11T11:23:58.748Z,103507.22
2023-02-11T11:26:28.478Z,103497.53
2023-02-11T11:28:57.492Z,103501.38
2023-02-11T11:31:42.435Z,103503.38
2023-02-11T11:34:29.877Z,103509.88
2023-02-11T11:36:59.673Z,103513.47
2023-02-11T11:39:32.470Z,103506.50
2023-02-11T11:42:06.089Z,103507.53
2023-02-11T11:44:40.819Z,103514.81
2023-02-11T11:47:22.290Z,103513.41
2023-02-11T11:50:03.684Z,103511.03
2023-02-11T11:52:36.458Z,103520.72
2023-02-11T11:55:12.901Z,103519.47
2023-02-11T11:57:40.505Z,103517.06
2023-02-11T12:00:17.771Z,103504.06
2023-02-11T12:03:18.561Z,103509.53
2023-02-11T12:06:10.734Z,103500.66
2023-02-11T12:09:11.237Z,103499.91
2023-02-11T12:12:20.744Z,103498.69
2023-02-11T12:15:02.250Z,103504.13
2023-02-11T12:18:00.964Z,103503.56
2023-02-11T12:20:45.876Z,103491.88
2023-02-11T12:23:27.793Z,103491.38
2023-02-11T12:26:16.672Z,103490.88
2023-02-11T12:29:10.360Z,103494.19
2023-02-11T12:32:04.970Z,103479.72
2023-02-11T12:35:09.332Z,103495.22
2023-02-11T12:37:51.117Z,103496.03
2023-02-11T12:40:35.299Z,103491.91
2023-02-11T12:43:36.694Z,103501.47
2023-02-11T12:46:37.779Z,103500.66
2023-02-11T12:49:10.073Z,103503.31
2023-02-11T12:52:03.763Z,103449.84
2023-02-11T12:54:41.712Z,103498.03
2023-02-11T12:57:22.991Z,103495.44
2023-02-11T13:00:22.649Z,103490.59
2023-02-11T13:03:11.012Z,103499.84
2023-02-11T13:05:43.657Z,103498.72
2023-02-11T13:08:27.767Z,103498.53
2023-02-11T13:11:01.294Z,103485.09
2023-02-11T13:13:50.669Z,103482.50
2023-02-11T13:16:32.643Z,103484.38
2023-02-11T13:19:14.211Z,103478.31
2023-02-11T13:21:56.186Z,103486.84
2023-02-11T13:24:27.266Z,103486.72
2023-02-11T13:27:23.720Z,103481.28
2023-02-11T13:30:21.956Z,103480.41
2023-02-11T13:32:54.312Z,103473.97
2023-02-11T13:35:38.579Z,103475.53
2023-02-11T13:38:17.524Z,103479.97
2023-02-11T13:40:44.389Z,103479.25
2023-02-11T13:43:25.482Z,103478.28
2023-02-11T13:45:57.473Z,103493.91
2023-02-11T13:48:37.586Z,103482.22
2023-02-11T13:51:10.018Z,103494.44
2023-02-11T13:53:48.644Z,103485.97
2023-02-11T13:56:30.049Z,103487.88
2023-02-11T13:58:59.651Z,103476.34
2023-02-11T14:02:12.850Z,103483.16
2023-02-11T14:05:22.636Z,103484.13
2023-02-11T14:08:33.623Z,103482.59
2023-02-11T14:11:02.749Z,103486.97
2023-02-11T14:13:33.658Z,103482.66
2023-02-11T14:16:37.593Z,103498.53
2023-02-11T14:19:06.338Z,103503.81
2023-02-11T14:21:42.290Z,103497.59
2023-02-11T14:24:12.964Z,103496.22
2023-02-11T14:26:52.655Z,103494.81
2023-02-11T14:29:34.778Z,103496.41
2023-02-11T14:32:38.056Z,103486.59
2023-02-11T14:35:22.662Z,103496.22
2023-02-11T14:38:16.530Z,103485.75
2023-02-11T14:41:03.450Z,103489.28
2023-02-11T14:43:46.367Z,103482.56
2023-02-11T14:46:15.546Z,103487.03
2023-02-11T14:48:49.332Z,103488.94
2023-02-11T14:51:25.758Z,103490.78
2023-02-11T14:53:57.837Z,103500.47
2023-02-11T14:56:26.957Z,103506.59
2023-02-11T14:58:55.169Z,103502.56
2023-02-11T15:01:40.216Z,103501.44
2023-02-11T15:04:23.989Z,103495.28
2023-02-11T15:06:50.929Z,103502.38
2023-02-11T15:09:27.862Z,103504.16
2023-02-11T15:11:55.883Z,103504.94
2023-02-11T15:14:34.415Z,103504.59
2023-02-11T15:17:08.042Z,103510.41
2023-02-11T15:19:35.904Z,103511.97
2023-02-11T15:22:05.901Z,103510.63
2023-02-11T15:24:35.526Z,103516.44
2023-02-11T15:27:14.556Z,103507.03
2023-02-11T15:29:44.743Z,103511.19
2023-02-11T15:32:17.407Z,103509.19
2023-02-11T15:34:45.693Z,103512.53
2023-02-11T15:37:19.547Z,103514.09
2023-02-11T15:39:46.174Z,103523.44
2023-02-11T15:42:28.576Z,103520.72
2023-02-11T15:45:16.996Z,103520.81
2023-02-11T15:47:52.659Z,103526.28
2023-02-11T15:50:35.177Z,103524.56
2023-02-11T15:53:25.246Z,103518.22
2023-02-11T15:55:54.093Z,103530.56
2023-02-11T15:58:22.663Z,103536.50
2023-02-11T16:00:56.607Z,103523.16
2023-02-11T16:03:28.000Z,103523.97
2023-02-11T16:05:56.481Z,103522.16
2023-02-11T16:08:29.772Z,103522.78
2023-02-11T16:11:08.743Z,103530.06
2023-02-11T16:13:47.548Z,103538.41
2023-02-11T16:16:24.854Z,103530.22
2023-02-11T16:19:04.971Z,103537.88
2023-02-11T16:21:39.279Z,103541.44
2023-02-11T16:24:07.957Z,103551.59
2023-02-11T16:26:43.124Z,103557.44
2023-02-11T16:29:29.818Z,103555.75
2023-02-11T16:32:09.099Z,103554.81
2023-02-11T16:34:36.506Z,103559.09
2023-02-11T16:37:05.354Z,103558.09
2023-02-11T16:39:32.097Z,103558.00
2023-02-11T16:41:59.518Z,103558.94
2023-02-11T16:44:26.306Z,103558.00
2023-02-11T16:46:53.934Z,103562.31
2023-02-11T16:49:23.954Z,103560.50
2023-02-11T16:51:53.064Z,103565.53
2023-02-11T16:54:20.207Z,103557.28
2023-02-11T16:56:46.786Z,103564.91
2023-02-11T16:59:13.429Z,103568.19
2023-02-11T17:01:41.186Z,103573.25
2023-02-11T17:04:14.720Z,103573.81
2023-02-11T17:06:41.142Z,103572.59
2023-02-11T17:09:08.494Z,103580.50
2023-02-11T17:11:34.924Z,103584.84
2023-02-11T17:14:01.365Z,103579.34
2023-02-11T17:16:29.750Z,103589.22
2023-02-11T17:18:56.233Z,103600.53
2023-02-11T17:21:27.122Z,103597.09
2023-02-11T17:23:55.179Z,103603.16
2023-02-11T17:26:21.693Z,103606.69
2023-02-11T17:28:48.249Z,103602.41
2023-02-11T17:31:15.191Z,103609.31
2023-02-11T17:33:41.750Z,103613.66
2023-02-11T17:36:10.349Z,103612.66
2023-02-11T17:38:38.209Z,103609.09
2023-02-11T17:41:07.919Z,103606.53
2023-02-11T17:43:34.438Z,103616.97
2023-02-11T17:46:05.494Z,103612.47
2023-02-11T17:48:33.872Z,103616.97
2023-02-11T17:51:00.469Z,103626.66
2023-02-11T17:53:26.880Z,103622.38
2023-02-11T17:55:55.983Z,103632.06
2023-02-11T17:58:22.886Z,103625.00
2023-02-11T18:00:49.810Z,103626.75
2023-02-11T18:03:16.241Z,103633.63
2023-02-11T18:05:42.692Z,103630.75
2023-02-11T18:08:09.340Z,103632.31
2023-02-11T18:10:35.821Z,103607.94
2023-02-11T18:13:02.457Z,103629.34
2023-02-11T18:15:29.018Z,103631.91
2023-02-11T18:17:55.947Z,103638.66
2023-02-11T18:20:22.423Z,103633.13
2023-02-11T18:22:48.915Z,103644.53
2023-02-11T18:25:15.999Z,103649.72
2023-02-11T18:27:43.491Z,103640.03
2023-02-11T18:30:20.200Z,103650.53
2023-02-11T18:32:46.806Z,103648.56
2023-02-11T18:35:15.141Z,103650.88
2023-02-11T18:37:42.660Z,103655.47
2023-02-11T18:40:10.591Z,103663.28
2023-02-11T18:42:37.155Z,103658.09
2023-02-11T18:45:09.669Z,103656.19
2023-02-11T18:47:37.768Z,103658.81
2023-02-11T18:50:10.112Z,103652.84
2023-02-11T18:52:38.353Z,103656.28
2023-02-11T18:55:09.057Z,103662.59
2023-02-11T18:57:35.498Z,103675.75
2023-02-11T19:00:01.901Z,103661.78
2023-02-11T19:02:29.337Z,103666.28
2023-02-11T19:04:55.840Z,103666.22
2023-02-11T19:07:22.295Z,103667.03
2023-02-11T19:09:49.030Z,103665.13
2023-02-11T19:12:15.576Z,103664.16
2023-02-11T19:14:42.009Z,103665.69
2023-02-11T19:17:11.841Z,103661.28
2023-02-11T19:19:38.456Z,103671.78
2023-02-11T19:22:10.554Z,103674.41
2023-02-11T19:24:38.527Z,103670.91
2023-02-11T19:27:05.210Z,103676.16
2023-02-11T19:29:35.122Z,103673.38
2023-02-11T19:32:04.235Z,103678.63
2023-02-11T19:34:30.774Z,103678.63
2023-02-11T19:36:59.576Z,103682.28
2023-02-11T19:39:29.322Z,103684.78
2023-02-11T19:41:55.791Z,103688.09
2023-02-11T19:44:22.232Z,103697.69
2023-02-11T19:46:50.219Z,103701.13
2023-02-11T19:49:23.194Z,103694.97
2023-02-11T19:51:53.978Z,103701.13
2023-02-11T19:54:20.777Z,103696.69
2023-02-11T19:56:47.878Z,103697.69
2023-02-11T19:59:15.523Z,103691.78
2023-02-11T20:01:42.322Z,103703.09
2023-02-11T20:04:09.073Z,103700.31
2023-02-11T20:06:35.627Z,103704.75
2023-02-11T20:09:06.492Z,103717.97
2023-02-11T20:11:35.828Z,103720.59
2023-02-11T20:14:02.700Z,103715.13
2023-02-11T20:16:47.079Z,103727.38
2023-02-11T20:19:17.795Z,103716.63
2023-02-11T20:21:47.110Z,103712.91
2023-02-11T20:24:14.285Z,103715.53
2023-02-11T20:26:42.399Z,103724.41
2023-02-11T20:29:08.940Z,103720.16
2023-02-11T20:31:35.687Z,103725.41
2023-02-11T20:34:02.468Z,103731.47
2023-02-11T20:36:32.350Z,103731.41
2023-02-11T20:39:00.496Z,103737.53
2023-02-11T20:41:34.192Z,103741.00
2023-02-11T20:44:04.065Z,103739.84
2023-02-11T20:46:33.178Z,103746.88
2023-02-11T20:49:00.913Z,103745.25
2023-02-11T20:51:30.350Z,103744.41
2023-02-11T20:53:57.581Z,103755.09
2023-02-11T20:56:26.964Z,103755.25
2023-02-11T20:58:53.466Z,103758.09
2023-02-11T21:01:25.701Z,103752.09
2023-02-11T21:03:53.666Z,103759.88
2023-02-11T21:06:21.726Z,103758.81
2023-02-11T21:08:48.291Z,103768.41
2023-02-11T21:11:15.219Z,103768.41
2023-02-11T21:13:42.746Z,103770.22
2023-02-11T21:16:13.499Z,103762.97
2023-02-11T21:18:40.334Z,103772.50
2023-02-11T21:21:07.147Z,103768.72
2023-02-11T21:23:33.660Z,103768.44
2023-02-11T21:26:00.114Z,103770.78
2023-02-11T21:28:26.744Z,103778.66
2023-02-11T21:30:55.185Z,103769.63
2023-02-11T21:33:23.442Z,103776.69
2023-02-11T21:35:50.203Z,103788.09
2023-02-11T21:38:16.793Z,103782.75
2023-02-11T21:40:43.324Z,103791.50
2023-02-11T21:43:09.799Z,103785.09
2023-02-11T21:45:42.733Z,103799.31
2023-02-11T21:48:09.425Z,103792.97
2023-02-11T21:50:43.226Z,103794.88
2023-02-11T21:53:09.833Z,103799.16
2023-02-11T21:55:37.436Z,103797.31
2023-02-11T21:58:04.863Z,103800.94
2023-02-11T22:00:32.102Z,103801.50
2023-02-11T22:02:58.530Z,103804.84
2023-02-11T22:05:25.293Z,103801.22
2023-02-11T22:07:52.130Z,103803.13
2023-02-11T22:10:19.651Z,103809.25
2023-02-11T22:12:46.548Z,103808.00
2023-02-11T22:15:13.268Z,103812.72
2023-02-11T22:17:39.846Z,103808.34
2023-02-11T22:20:08.814Z,103810.81
2023-02-11T22:22:35.527Z,103808.19
2023-02-11T22:25:03.289Z,103802.81
2023-02-11T22:27:29.798Z,103798.41
2023-02-11T22:29:56.287Z,103810.91
2023-02-11T22:32:22.881Z,103810.19
2023-02-11T22:34:51.498Z,103809.25
2023-02-11T22:37:22.500Z,103805.84
2023-02-11T22:39:49.110Z,103804.00
2023-02-11T22:42:15.519Z,103804.00
2023-02-11T22:44:42.192Z,103807.56
2023-02-11T22:47:08.681Z,103810.09
2023-02-11T22:49:35.998Z,103810.09
2023-02-11T22:52:03.468Z,103817.06
2023-02-11T22:54:30.029Z,103811.81
2023-02-11T22:56:56.407Z,103808.28
2023-02-11T22:59:22.848Z,103813.59
2023-02-11T23:01:49.386Z,103816.41
2023-02-11T23:04:17.020Z,103812.88
2023-02-11T23:06:43.578Z,103805.84
2023-02-11T23:09:12.451Z,103806.75
2023-02-11T23:11:40.545Z,103823.38
2023-02-11T23:14:08.690Z,103820.69
2023-02-11T23:16:35.491Z,103826.84
2023-02-11T23:19:07.919Z,103826.84
2023-02-11T23:21:37.101Z,103829.34
2023-02-11T23:24:14.706Z,103827.56
2023-02-11T23:26:43.226Z,103833.53
2023-02-11T23:29:10.898Z,103837.97
2023-02-11T23:31:41.366Z,103830.97
2023-02-11T23:34:08.829Z,103835.34
2023-02-11T23:36:36.092Z,103831.97
2023-02-11T23:39:03.047Z,103822.50
2023-02-11T23:41:29.805Z,103828.03
2023-02-11T23:43:57.883Z,103828.09
2023-02-11T23:46:26.608Z,103829.94
2023-02-11T23:48:53.390Z,103827.09
2023-02-11T23:51:20.405Z,103832.16
2023-02-11T23:53:49.179Z,103831.19
2023-02-11T23:56:18.741Z,103835.63
2023-02-11T23:58:48.198Z,103831.38
